Valley Farms, Arizona
Current Conditions -  °F | °C
As of 4:35 AM on Monday 20 Oct 2014 (Local Time) from KCGZ Reporting Station
Clear Clear  
Wind Chill: 66°   Ceiling: Unl
Heat Index: 66°   Visibility: 10mi
Dew Point: 48°   Wind: 3mph
Humidity: 52%   Direction: 50°NE
Pressure: 29.89"   Gusts: NA
Location:  32.99°N, 111.45°W
Report Text: KCGZ 201135Z AUTO 05003KT 10SM CLR 19/09 A2989 RMK AO1
Loading
Personal Weather Stations






























Interactive Weather Map
Tropical Storm Tracking
New forecast layout! Learn more

10-Day Weather Forecast

Advertisements
Track Severe Weather on mobile